createdAt,value
2019-05-21T00:00:32.776Z,0.00
2019-05-21T00:01:32.706Z,0.00
2019-05-21T00:02:32.631Z,0.00
2019-05-21T00:03:32.563Z,0.00
2019-05-21T00:04:32.489Z,0.00
2019-05-21T00:05:32.425Z,0.00
2019-05-21T00:06:32.404Z,0.00
2019-05-21T00:07:32.284Z,0.00
2019-05-21T00:08:32.220Z,0.00
2019-05-21T00:09:32.151Z,0.00
2019-05-21T00:10:32.080Z,0.00
2019-05-21T00:11:32.008Z,0.00
2019-05-21T00:12:31.944Z,0.00
2019-05-21T00:13:31.876Z,0.00
2019-05-21T00:14:31.804Z,0.00
2019-05-21T00:15:31.735Z,0.00
2019-05-21T00:16:31.670Z,0.00
2019-05-21T00:17:31.602Z,0.00
2019-05-21T00:18:31.564Z,0.00
2019-05-21T00:19:31.461Z,0.00
2019-05-21T00:20:31.391Z,0.00
2019-05-21T00:21:31.323Z,0.00
2019-05-21T00:22:31.301Z,0.00
2019-05-21T00:23:31.181Z,0.00
2019-05-21T00:24:31.113Z,0.00
2019-05-21T00:25:31.046Z,0.00
2019-05-21T00:26:30.988Z,0.00
2019-05-21T00:27:30.906Z,0.00
2019-05-21T00:28:30.871Z,0.00
2019-05-21T00:29:30.768Z,0.00
2019-05-21T00:30:30.700Z,0.00
2019-05-21T00:31:30.629Z,0.00
2019-05-21T00:32:30.562Z,0.00
2019-05-21T00:33:30.493Z,0.00
2019-05-21T00:34:43.134Z,0.00
2019-05-21T00:35:30.352Z,0.00
2019-05-21T00:36:30.286Z,0.00
2019-05-21T00:37:30.218Z,0.00
2019-05-21T00:38:30.148Z,0.00
2019-05-21T00:39:30.084Z,0.00
2019-05-21T00:40:30.009Z,0.00
2019-05-21T00:41:29.952Z,0.00
2019-05-21T00:42:29.874Z,0.00
2019-05-21T00:43:29.798Z,0.00
2019-05-21T00:44:29.756Z,0.00
2019-05-21T00:45:29.686Z,0.00
2019-05-21T00:46:29.596Z,0.00
2019-05-21T00:47:29.529Z,0.00
2019-05-21T00:48:29.458Z,0.00
2019-05-21T00:49:29.383Z,0.00
2019-05-21T00:50:29.315Z,0.00
2019-05-21T00:51:29.264Z,0.00
2019-05-21T00:52:29.187Z,0.00
2019-05-21T00:53:29.118Z,0.00
2019-05-21T00:54:29.041Z,0.00
2019-05-21T00:55:28.975Z,0.00
2019-05-21T00:56:28.903Z,0.00
2019-05-21T00:57:28.836Z,0.00
2019-05-21T00:58:28.766Z,0.00
2019-05-21T00:59:28.692Z,0.00
2019-05-21T01:00:28.632Z,0.00
2019-05-21T01:01:28.558Z,0.00
2019-05-21T01:02:28.489Z,0.00
2019-05-21T01:03:28.418Z,0.00
2019-05-21T01:04:28.350Z,0.00
2019-05-21T01:05:28.280Z,0.00
2019-05-21T01:06:28.208Z,0.00
2019-05-21T01:07:28.147Z,0.00
2019-05-21T01:08:28.069Z,0.00
2019-05-21T01:09:28.413Z,0.00
2019-05-21T01:10:27.934Z,0.00
2019-05-21T01:11:27.868Z,0.00
2019-05-21T01:12:27.795Z,0.00
2019-05-21T01:13:27.726Z,0.00
2019-05-21T01:14:27.659Z,0.00
2019-05-21T01:15:27.590Z,0.00
2019-05-21T01:16:27.522Z,0.00
2019-05-21T01:17:27.446Z,0.00
2019-05-21T01:18:27.378Z,0.00
2019-05-21T01:19:27.310Z,0.00
2019-05-21T01:20:27.242Z,0.00
2019-05-21T01:21:27.169Z,0.00
2019-05-21T01:22:27.099Z,0.00
2019-05-21T01:23:27.032Z,0.00
2019-05-21T01:24:26.963Z,0.00
2019-05-21T01:25:26.891Z,0.00
2019-05-21T01:26:26.822Z,0.00
2019-05-21T01:27:26.754Z,0.00
2019-05-21T01:28:26.685Z,0.00
2019-05-21T01:29:26.612Z,0.00
2019-05-21T01:30:26.545Z,0.00
2019-05-21T01:31:26.479Z,0.00
2019-05-21T01:32:26.407Z,0.00
2019-05-21T01:33:26.334Z,0.00
2019-05-21T01:34:26.284Z,0.00
2019-05-21T01:35:26.200Z,0.00
2019-05-21T01:36:26.129Z,0.00
2019-05-21T01:37:26.060Z,0.00
2019-05-21T01:38:25.990Z,0.00
2019-05-21T01:39:25.915Z,0.00
2019-05-21T01:40:25.851Z,0.00
2019-05-21T01:41:25.782Z,0.00
2019-05-21T01:42:25.748Z,0.00
2019-05-21T01:43:25.640Z,0.00
2019-05-21T01:44:25.641Z,0.00
2019-05-21T01:45:25.501Z,0.00
2019-05-21T01:46:25.439Z,0.00
2019-05-21T01:47:25.362Z,0.00
2019-05-21T01:48:25.292Z,0.00
2019-05-21T01:49:25.223Z,0.00
2019-05-21T01:50:25.154Z,0.00
2019-05-21T01:51:25.082Z,0.00
2019-05-21T01:52:25.016Z,0.00
2019-05-21T01:53:24.960Z,0.00
2019-05-21T01:54:24.889Z,0.00
2019-05-21T01:55:24.816Z,0.00
2019-05-21T01:56:24.751Z,0.00
2019-05-21T01:57:24.677Z,0.00
2019-05-21T01:58:24.640Z,0.00
2019-05-21T01:59:24.579Z,0.00
2019-05-21T02:00:24.467Z,0.00
2019-05-21T02:01:24.386Z,0.00
2019-05-21T02:02:24.328Z,0.00
2019-05-21T02:03:24.244Z,0.00
2019-05-21T02:04:24.177Z,0.00
2019-05-21T02:05:32.712Z,0.00
2019-05-21T02:06:24.042Z,0.00
2019-05-21T02:07:23.967Z,0.00
2019-05-21T02:08:23.895Z,0.00
2019-05-21T02:09:23.835Z,0.00
2019-05-21T02:10:23.757Z,0.00
2019-05-21T02:11:23.711Z,0.00
2019-05-21T02:12:23.621Z,0.00
2019-05-21T02:13:23.544Z,0.00
2019-05-21T02:14:23.484Z,0.00
2019-05-21T02:15:23.408Z,0.00
2019-05-21T02:16:23.336Z,0.00
2019-05-21T02:17:23.264Z,0.00
2019-05-21T02:18:23.204Z,0.00
2019-05-21T02:19:23.134Z,0.00
2019-05-21T02:20:23.059Z,0.00
2019-05-21T02:21:22.991Z,0.00
2019-05-21T02:22:22.921Z,0.00
2019-05-21T02:23:22.847Z,0.00
2019-05-21T02:24:22.779Z,0.00
2019-05-21T02:25:22.708Z,0.00
2019-05-21T02:26:22.645Z,0.00
2019-05-21T02:27:22.569Z,0.00
2019-05-21T02:28:22.501Z,0.00
2019-05-21T02:29:22.429Z,0.00
2019-05-21T02:30:22.363Z,0.00
2019-05-21T02:31:22.296Z,0.00
2019-05-21T02:32:22.225Z,0.00
2019-05-21T02:33:22.187Z,0.00
2019-05-21T02:34:22.093Z,0.00
2019-05-21T02:35:22.012Z,0.00
2019-05-21T02:36:21.937Z,0.00
2019-05-21T02:37:21.867Z,0.00
2019-05-21T02:38:21.809Z,0.00
2019-05-21T02:39:21.735Z,0.00
2019-05-21T02:40:21.658Z,0.00
2019-05-21T02:41:21.591Z,0.00
2019-05-21T02:42:21.522Z,0.00
2019-05-21T02:43:21.455Z,0.00
2019-05-21T02:44:21.381Z,0.00
2019-05-21T02:45:21.309Z,0.00
2019-05-21T02:46:21.242Z,0.00
2019-05-21T02:47:21.173Z,0.00
2019-05-21T02:48:21.107Z,0.00
2019-05-21T02:49:21.030Z,0.00
2019-05-21T02:50:20.962Z,0.00
2019-05-21T02:51:20.891Z,0.00
2019-05-21T02:52:20.818Z,0.00
2019-05-21T02:53:20.754Z,0.00
2019-05-21T02:54:37.558Z,0.00
2019-05-21T02:55:20.609Z,0.00
2019-05-21T02:56:20.541Z,0.00
2019-05-21T02:57:20.470Z,0.00
2019-05-21T02:58:20.402Z,0.00
2019-05-21T02:59:20.332Z,0.00
2019-05-21T03:00:20.262Z,0.00
2019-05-21T03:01:20.189Z,0.00
2019-05-21T03:02:20.119Z,0.00
2019-05-21T03:03:20.049Z,0.00
2019-05-21T03:04:19.978Z,0.00
2019-05-21T03:05:19.926Z,0.00
2019-05-21T03:06:19.838Z,0.00
2019-05-21T03:07:19.782Z,0.00
2019-05-21T03:08:19.701Z,0.00
2019-05-21T03:09:19.635Z,0.00
2019-05-21T03:10:19.583Z,0.00
2019-05-21T03:11:19.492Z,0.00
2019-05-21T03:12:19.443Z,0.00
2019-05-21T03:13:19.353Z,0.00
2019-05-21T03:14:19.278Z,0.00
2019-05-21T03:15:19.209Z,0.00
2019-05-21T03:16:19.140Z,0.00
2019-05-21T03:17:19.069Z,0.00
2019-05-21T03:18:19.000Z,0.00
2019-05-21T03:19:18.930Z,0.00
2019-05-21T03:20:18.865Z,0.00
2019-05-21T03:21:18.792Z,0.00
2019-05-21T03:22:18.718Z,0.00
2019-05-21T03:23:18.651Z,0.00
2019-05-21T03:24:18.580Z,0.00
2019-05-21T03:25:18.506Z,0.00
2019-05-21T03:26:18.440Z,0.00
2019-05-21T03:27:18.368Z,0.00
2019-05-21T03:28:18.298Z,0.00
2019-05-21T03:29:18.228Z,0.00
2019-05-21T03:30:18.159Z,0.00
2019-05-21T03:31:18.094Z,0.00
2019-05-21T03:32:18.016Z,0.00
2019-05-21T03:33:17.966Z,0.00
2019-05-21T03:34:17.878Z,0.00
2019-05-21T03:35:17.810Z,0.00
2019-05-21T03:36:32.616Z,0.00
2019-05-21T03:37:17.676Z,0.00
2019-05-21T03:38:17.592Z,0.00
2019-05-21T03:39:19.400Z,0.00
2019-05-21T03:40:17.489Z,0.00
2019-05-21T03:41:17.388Z,0.00
2019-05-21T03:42:17.312Z,0.00
2019-05-21T03:43:17.242Z,0.00
2019-05-21T03:44:17.176Z,0.00
2019-05-21T03:45:17.109Z,0.00
2019-05-21T03:46:17.045Z,0.00
2019-05-21T03:47:16.969Z,0.00
2019-05-21T03:48:16.889Z,0.00
2019-05-21T03:49:16.835Z,0.00
2019-05-21T03:50:16.758Z,0.00
2019-05-21T03:51:16.683Z,0.00
2019-05-21T03:52:16.610Z,0.00
2019-05-21T03:53:16.567Z,0.00
2019-05-21T03:54:16.468Z,0.00
2019-05-21T03:55:16.405Z,0.00
2019-05-21T03:56:16.340Z,0.00
2019-05-21T03:57:16.267Z,0.00
2019-05-21T03:58:16.197Z,0.00
2019-05-21T03:59:16.117Z,0.00
2019-05-21T04:00:16.054Z,0.00
2019-05-21T04:01:15.993Z,0.00
2019-05-21T04:02:15.907Z,0.00
2019-05-21T04:03:15.845Z,0.00
2019-05-21T04:04:15.769Z,0.00
2019-05-21T04:05:15.700Z,0.00
2019-05-21T04:06:15.625Z,0.00
2019-05-21T04:07:15.558Z,0.00
2019-05-21T04:08:15.492Z,4.00
2019-05-21T04:09:15.416Z,4.00
2019-05-21T04:10:15.358Z,4.00
2019-05-21T04:11:15.277Z,4.00
2019-05-21T04:12:15.213Z,0.00
2019-05-21T04:13:15.136Z,0.00
2019-05-21T04:14:15.078Z,4.00
2019-05-21T04:15:15.003Z,4.00
2019-05-21T04:16:14.924Z,4.00
2019-05-21T04:17:14.855Z,4.00
2019-05-21T04:18:14.783Z,8.00
2019-05-21T04:19:14.713Z,4.00
2019-05-21T04:20:14.644Z,4.00
2019-05-21T04:21:14.575Z,4.00
2019-05-21T04:22:14.504Z,8.00
2019-05-21T04:23:14.431Z,8.00
2019-05-21T04:24:14.362Z,12.00
2019-05-21T04:25:14.292Z,12.00
2019-05-21T04:26:14.222Z,16.00
2019-05-21T04:27:14.153Z,16.00
2019-05-21T04:28:14.142Z,20.00
2019-05-21T04:29:14.007Z,20.00
2019-05-21T04:30:13.938Z,24.00
2019-05-21T04:31:13.862Z,28.00
2019-05-21T04:32:13.798Z,32.00
2019-05-21T04:33:13.744Z,40.00
2019-05-21T04:34:13.651Z,44.00
2019-05-21T04:35:13.583Z,52.00
2019-05-21T04:36:13.512Z,60.00
2019-05-21T04:37:17.245Z,68.00
2019-05-21T04:38:13.377Z,76.00
2019-05-21T04:39:13.305Z,84.00
2019-05-21T04:40:13.234Z,92.00
2019-05-21T04:41:13.163Z,100.00
2019-05-21T04:42:13.089Z,112.00
2019-05-21T04:43:13.019Z,120.00
2019-05-21T04:44:12.950Z,132.00
2019-05-21T04:45:12.879Z,144.00
2019-05-21T04:46:12.808Z,152.00
2019-05-21T04:47:12.747Z,164.00
2019-05-21T04:48:12.671Z,172.00
2019-05-21T04:49:12.600Z,188.00
2019-05-21T04:50:12.528Z,196.00
2019-05-21T04:51:13.920Z,208.00
2019-05-21T04:52:12.391Z,220.00
2019-05-21T04:53:12.315Z,232.00
2019-05-21T04:54:12.246Z,244.00
2019-05-21T04:55:12.173Z,260.00
2019-05-21T04:56:12.105Z,272.00
2019-05-21T04:57:12.037Z,292.00
2019-05-21T04:58:12.016Z,308.00
2019-05-21T04:59:11.892Z,328.00
2019-05-21T05:00:11.826Z,352.00
2019-05-21T05:01:11.754Z,368.00
2019-05-21T05:02:11.682Z,388.00
2019-05-21T05:03:11.612Z,416.00
2019-05-21T05:04:11.540Z,436.00
2019-05-21T05:05:11.471Z,456.00
2019-05-21T05:06:11.404Z,484.00
2019-05-21T05:07:27.068Z,504.00
2019-05-21T05:08:11.259Z,532.00
2019-05-21T05:09:11.189Z,556.00
2019-05-21T05:10:11.118Z,580.00
2019-05-21T05:11:11.049Z,608.00
2019-05-21T05:12:10.977Z,640.00
2019-05-21T05:13:10.905Z,672.00
2019-05-21T05:14:10.843Z,700.00
2019-05-21T05:15:10.773Z,732.00
2019-05-21T05:16:10.698Z,768.00
2019-05-21T05:17:10.632Z,800.00
2019-05-21T05:18:10.556Z,836.00
2019-05-21T05:19:10.490Z,872.00
2019-05-21T05:20:10.417Z,916.00
2019-05-21T05:21:10.347Z,956.00
2019-05-21T05:22:10.273Z,992.00
2019-05-21T05:23:10.206Z,1036.00
2019-05-21T05:24:10.136Z,1080.00
2019-05-21T05:25:10.068Z,1120.00
2019-05-21T05:26:09.995Z,1160.00
2019-05-21T05:27:09.926Z,1204.00
2019-05-21T05:28:09.856Z,1248.00
2019-05-21T05:29:09.801Z,1300.00
2019-05-21T05:30:09.717Z,1340.00
2019-05-21T05:31:09.645Z,1380.00
2019-05-21T05:32:09.575Z,1432.00
2019-05-21T05:33:09.507Z,1480.00
2019-05-21T05:34:09.435Z,1524.00
2019-05-21T05:35:09.365Z,1572.00
2019-05-21T05:36:09.314Z,1616.00
2019-05-21T05:37:09.228Z,1656.00
2019-05-21T05:38:09.156Z,1652.00
2019-05-21T05:39:09.085Z,1620.00
2019-05-21T05:40:09.032Z,1628.00
2019-05-21T05:41:08.952Z,1704.00
2019-05-21T05:42:08.883Z,1796.00
2019-05-21T05:43:08.806Z,1884.00
2019-05-21T05:44:08.737Z,1924.00
2019-05-21T05:45:08.667Z,1984.00
2019-05-21T05:46:08.596Z,2040.00
2019-05-21T05:47:08.534Z,2088.00
2019-05-21T05:48:08.459Z,2132.00
2019-05-21T05:49:08.387Z,2176.00
2019-05-21T05:50:08.318Z,2200.00
2019-05-21T05:51:08.256Z,2192.00
2019-05-21T05:52:08.177Z,2092.00
2019-05-21T05:53:08.116Z,2012.00
2019-05-21T05:54:08.036Z,2224.00
2019-05-21T05:55:07.964Z,2360.00
2019-05-21T05:56:07.893Z,2376.00
2019-05-21T05:57:07.830Z,2364.00
2019-05-21T05:58:07.758Z,2368.00
2019-05-21T05:59:07.686Z,2444.00
2019-05-21T06:00:07.621Z,2180.00
2019-05-21T06:01:07.551Z,2144.00
2019-05-21T06:02:07.478Z,2256.00
2019-05-21T06:03:07.413Z,2320.00
2019-05-21T06:04:07.362Z,2128.00
2019-05-21T06:05:07.280Z,2108.00
2019-05-21T06:06:07.201Z,2100.00
2019-05-21T06:07:07.140Z,2296.00
2019-05-21T06:08:11.172Z,2608.00
2019-05-21T06:09:06.996Z,2788.00
2019-05-21T06:10:06.980Z,2856.00
2019-05-21T06:11:07.051Z,2956.00
2019-05-21T06:12:06.846Z,3076.00
2019-05-21T06:13:06.722Z,3116.00
2019-05-21T06:14:06.643Z,3164.00
2019-05-21T06:15:06.651Z,3168.00
2019-05-21T06:16:06.530Z,3100.00
2019-05-21T06:17:06.507Z,3048.00
2019-05-21T06:18:06.380Z,3148.00
2019-05-21T06:19:06.592Z,3184.00
2019-05-21T06:20:06.232Z,3176.00
2019-05-21T06:21:06.176Z,3184.00
2019-05-21T06:22:06.096Z,3200.00
2019-05-21T06:23:06.019Z,3168.00
2019-05-21T06:24:05.953Z,3088.00
2019-05-21T06:25:05.974Z,3212.00
2019-05-21T06:26:05.831Z,3332.00
2019-05-21T06:27:05.744Z,3432.00
2019-05-21T06:28:05.676Z,3520.00
2019-05-21T06:29:05.608Z,3640.00
2019-05-21T06:30:05.543Z,3712.00
2019-05-21T06:31:05.466Z,3760.00
2019-05-21T06:32:05.711Z,3796.00
2019-05-21T06:33:05.618Z,3812.00
2019-05-21T06:34:06.490Z,3840.00
2019-05-21T06:35:05.426Z,3868.00
2019-05-21T06:36:05.478Z,3876.00
2019-05-21T06:37:05.085Z,3916.00
2019-05-21T06:38:17.313Z,3952.00
2019-05-21T06:39:05.002Z,3968.00
2019-05-21T06:40:04.853Z,4008.00
2019-05-21T06:41:04.839Z,4032.00
2019-05-21T06:42:04.772Z,4056.00
2019-05-21T06:43:04.666Z,4100.00
2019-05-21T06:44:04.686Z,4104.00
2019-05-21T06:45:04.558Z,4136.00
2019-05-21T06:46:04.474Z,4156.00
2019-05-21T06:47:04.446Z,4192.00
2019-05-21T06:48:04.303Z,4208.00
2019-05-21T06:49:04.235Z,4228.00
2019-05-21T06:50:04.171Z,4248.00
2019-05-21T06:51:04.102Z,4276.00
2019-05-21T06:52:04.031Z,4312.00
2019-05-21T06:53:03.978Z,4332.00
2019-05-21T06:54:03.976Z,4356.00
2019-05-21T06:55:03.834Z,4376.00
2019-05-21T06:56:07.421Z,4404.00
2019-05-21T06:57:03.692Z,4428.00
2019-05-21T06:58:03.626Z,4440.00
2019-05-21T06:59:03.550Z,4452.00
2019-05-21T07:00:03.528Z,4484.00
2019-05-21T07:01:03.418Z,4492.00
2019-05-21T07:02:03.361Z,4500.00
2019-05-21T07:03:03.286Z,4516.00
2019-05-21T07:04:03.214Z,4528.00
2019-05-21T07:05:03.153Z,4536.00
2019-05-21T07:06:03.088Z,4548.00
2019-05-21T07:07:03.010Z,4556.00
2019-05-21T07:08:02.945Z,4580.00
2019-05-21T07:09:02.879Z,4608.00
2019-05-21T07:10:03.285Z,4620.00
2019-05-21T07:11:02.742Z,4616.00
2019-05-21T07:12:02.675Z,4624.00
2019-05-21T07:13:02.618Z,4624.00
2019-05-21T07:14:02.542Z,4636.00
2019-05-21T07:15:02.470Z,4644.00
2019-05-21T07:16:02.402Z,4660.00
2019-05-21T07:17:02.338Z,4676.00
2019-05-21T07:18:02.268Z,4668.00
2019-05-21T07:19:02.202Z,4680.00
2019-05-21T07:20:02.174Z,4712.00
2019-05-21T07:21:02.085Z,4708.00
2019-05-21T07:22:12.167Z,4720.00
2019-05-21T07:23:02.097Z,4748.00
2019-05-21T07:24:01.864Z,4764.00
2019-05-21T07:25:01.797Z,4772.00
2019-05-21T07:26:01.729Z,4780.00
2019-05-21T07:27:01.664Z,4772.00
2019-05-21T07:28:01.594Z,4772.00
2019-05-21T07:29:01.573Z,4768.00
2019-05-21T07:30:01.460Z,4792.00
2019-05-21T07:31:01.387Z,4812.00
2019-05-21T07:32:01.332Z,4820.00
2019-05-21T07:33:01.422Z,4832.00
2019-05-21T07:34:01.186Z,4856.00
2019-05-21T07:35:01.148Z,4868.00
2019-05-21T07:36:01.103Z,4860.00
2019-05-21T07:37:00.993Z,4868.00
2019-05-21T07:38:00.923Z,4888.00
2019-05-21T07:39:00.850Z,4888.00
2019-05-21T07:40:00.785Z,4896.00
2019-05-21T07:41:00.724Z,4908.00
2019-05-21T07:42:00.650Z,4900.00
2019-05-21T07:43:00.579Z,4896.00
2019-05-21T07:44:00.512Z,4884.00
2019-05-21T07:45:00.444Z,4872.00
2019-05-21T07:46:00.373Z,4872.00
2019-05-21T07:47:00.314Z,4888.00
2019-05-21T07:48:00.244Z,4900.00
2019-05-21T07:49:00.181Z,4896.00
2019-05-21T07:50:00.107Z,4880.00
2019-05-21T07:51:00.096Z,4884.00
2019-05-21T07:51:59.993Z,4884.00
2019-05-21T07:52:59.945Z,4876.00
2019-05-21T07:53:59.845Z,4892.00
2019-05-21T07:54:59.772Z,4876.00
2019-05-21T07:55:59.708Z,4900.00
2019-05-21T07:56:59.642Z,4876.00
2019-05-21T07:57:59.574Z,4872.00
2019-05-21T07:58:59.509Z,4888.00
2019-05-21T07:59:59.440Z,4904.00
2019-05-21T08:01:01.131Z,4916.00
2019-05-21T08:01:59.308Z,4904.00
2019-05-21T08:02:59.240Z,4912.00
2019-05-21T08:03:59.178Z,4912.00
2019-05-21T08:04:59.102Z,4920.00
2019-05-21T08:05:59.047Z,4920.00
2019-05-21T08:06:58.988Z,4932.00
2019-05-21T08:07:58.917Z,4936.00
2019-05-21T08:09:12.426Z,4932.00
2019-05-21T08:09:58.773Z,4920.00
2019-05-21T08:10:58.701Z,4920.00
2019-05-21T08:11:58.642Z,4940.00
2019-05-21T08:12:58.567Z,4936.00
2019-05-21T08:13:58.508Z,4924.00
2019-05-21T08:14:58.434Z,4912.00
2019-05-21T08:15:58.368Z,4920.00
2019-05-21T08:16:58.304Z,4900.00
2019-05-21T08:17:58.271Z,4912.00
2019-05-21T08:18:58.171Z,4920.00
2019-05-21T08:20:08.495Z,4896.00
2019-05-21T08:20:58.034Z,4892.00
2019-05-21T08:21:57.973Z,4884.00
2019-05-21T08:22:57.908Z,4888.00
2019-05-21T08:23:57.830Z,4868.00
2019-05-21T08:24:57.768Z,4872.00
2019-05-21T08:25:57.698Z,4848.00
2019-05-21T08:26:57.630Z,4816.00
2019-05-21T08:27:57.564Z,4840.00
2019-05-21T08:28:57.510Z,4828.00
2019-05-21T08:29:57.433Z,4840.00
2019-05-21T08:30:57.364Z,4852.00
2019-05-21T08:31:57.308Z,4872.00
2019-05-21T08:32:57.245Z,4852.00
2019-05-21T08:33:57.167Z,4844.00
2019-05-21T08:34:57.102Z,4752.00
2019-05-21T08:35:57.032Z,4680.00
2019-05-21T08:36:56.973Z,4752.00
2019-05-21T08:37:56.908Z,4648.00
2019-05-21T08:38:56.836Z,4740.00
2019-05-21T08:39:56.772Z,4696.00
2019-05-21T08:40:56.703Z,4600.00
2019-05-21T08:41:56.636Z,4528.00
2019-05-21T08:42:56.568Z,4536.00
2019-05-21T08:43:56.501Z,4540.00
2019-05-21T08:44:56.440Z,4444.00
2019-05-21T08:45:56.368Z,4500.00
2019-05-21T08:46:56.308Z,4540.00
2019-05-21T08:47:56.243Z,4572.00
2019-05-21T08:48:56.172Z,4568.00
2019-05-21T08:49:56.118Z,4500.00
2019-05-21T08:50:56.039Z,4488.00
2019-05-21T08:51:55.978Z,4464.00
2019-05-21T08:52:55.908Z,4452.00
2019-05-21T08:53:55.843Z,4484.00
2019-05-21T08:54:56.659Z,4508.00
2019-05-21T08:55:55.709Z,4536.00
2019-05-21T08:56:55.642Z,4472.00
2019-05-21T08:58:06.449Z,4632.00
2019-05-21T08:58:55.511Z,4668.00
2019-05-21T08:59:55.442Z,4724.00
2019-05-21T09:00:55.378Z,4784.00
2019-05-21T09:01:58.937Z,4772.00
2019-05-21T09:02:55.253Z,4744.00
2019-05-21T09:03:55.179Z,4744.00
2019-05-21T09:04:55.113Z,4760.00
2019-05-21T09:05:55.044Z,4720.00
2019-05-21T09:06:54.979Z,4720.00
2019-05-21T09:07:54.916Z,4708.00
2019-05-21T09:08:54.848Z,4716.00
2019-05-21T09:09:54.783Z,4688.00
2019-05-21T09:10:54.730Z,4688.00
2019-05-21T09:11:54.659Z,4680.00
2019-05-21T09:12:54.584Z,4680.00
2019-05-21T09:13:54.516Z,4692.00
2019-05-21T09:14:54.454Z,4684.00
2019-05-21T09:15:54.402Z,4676.00
2019-05-21T09:16:54.322Z,4648.00
2019-05-21T09:17:54.254Z,4612.00
2019-05-21T09:18:54.190Z,4616.00
2019-05-21T09:19:54.147Z,4616.00
2019-05-21T09:20:54.061Z,4624.00
2019-05-21T09:21:53.990Z,4612.00
2019-05-21T09:22:53.924Z,4612.00
2019-05-21T09:23:53.858Z,4584.00
2019-05-21T09:24:53.787Z,4580.00
2019-05-21T09:25:53.723Z,4576.00
2019-05-21T09:26:53.659Z,4552.00
2019-05-21T09:27:53.599Z,4544.00
2019-05-21T09:28:53.528Z,4556.00
2019-05-21T09:29:53.462Z,4572.00
2019-05-21T09:30:53.396Z,4552.00
2019-05-21T09:31:53.328Z,4548.00
2019-05-21T09:32:53.262Z,4544.00
2019-05-21T09:33:53.195Z,4504.00
2019-05-21T09:34:53.133Z,4532.00
2019-05-21T09:35:53.066Z,4528.00
2019-05-21T09:36:53.000Z,4516.00
2019-05-21T09:37:52.942Z,4504.00
2019-05-21T09:38:52.951Z,4496.00
2019-05-21T09:39:52.822Z,4496.00
2019-05-21T09:40:52.740Z,4496.00
2019-05-21T09:41:52.681Z,4504.00
2019-05-21T09:42:52.605Z,4496.00
2019-05-21T09:43:52.552Z,4488.00
2019-05-21T09:44:52.474Z,4476.00
2019-05-21T09:45:52.406Z,4460.00
2019-05-21T09:46:52.401Z,4452.00
2019-05-21T09:47:52.273Z,4464.00
2019-05-21T09:48:52.211Z,4452.00
2019-05-21T09:49:52.145Z,4444.00
2019-05-21T09:50:52.080Z,4428.00
2019-05-21T09:51:52.014Z,4408.00
2019-05-21T09:52:51.948Z,4440.00
2019-05-21T09:53:51.880Z,4420.00
2019-05-21T09:54:51.833Z,4396.00
2019-05-21T09:55:51.775Z,4396.00
2019-05-21T09:56:51.686Z,4404.00
2019-05-21T09:57:51.652Z,4380.00
2019-05-21T09:58:51.557Z,4352.00
2019-05-21T09:59:51.498Z,4336.00
2019-05-21T10:00:51.426Z,4292.00
2019-05-21T10:01:51.377Z,4268.00
2019-05-21T10:02:51.291Z,4192.00
2019-05-21T10:03:51.226Z,4168.00
2019-05-21T10:04:51.223Z,4204.00
2019-05-21T10:05:51.099Z,4152.00
2019-05-21T10:06:51.028Z,4104.00
2019-05-21T10:07:50.962Z,4116.00
2019-05-21T10:08:50.896Z,4076.00
2019-05-21T10:09:50.834Z,4084.00
2019-05-21T10:10:50.791Z,4048.00
2019-05-21T10:11:50.715Z,4044.00
2019-05-21T10:12:50.636Z,4056.00
2019-05-21T10:13:50.571Z,4048.00
2019-05-21T10:14:50.510Z,4036.00
2019-05-21T10:15:50.438Z,4000.00
2019-05-21T10:16:50.373Z,4048.00
2019-05-21T10:17:50.317Z,4032.00
2019-05-21T10:18:50.240Z,3948.00
2019-05-21T10:19:50.170Z,3916.00
2019-05-21T10:20:50.109Z,3816.00
2019-05-21T10:21:50.042Z,3856.00
2019-05-21T10:22:49.974Z,3880.00
2019-05-21T10:23:49.913Z,3876.00
2019-05-21T10:24:49.856Z,3840.00
2019-05-21T10:25:49.780Z,3780.00
2019-05-21T10:26:49.714Z,3888.00
2019-05-21T10:27:49.648Z,3944.00
2019-05-21T10:28:49.581Z,3932.00
2019-05-21T10:29:49.515Z,3912.00
2019-05-21T10:30:49.449Z,3892.00
2019-05-21T10:31:49.384Z,3892.00
2019-05-21T10:32:49.321Z,3860.00
2019-05-21T10:33:49.254Z,3848.00
2019-05-21T10:34:49.190Z,3764.00
2019-05-21T10:35:49.123Z,3740.00
2019-05-21T10:36:49.069Z,3752.00
2019-05-21T10:37:54.902Z,3728.00
2019-05-21T10:38:48.933Z,3688.00
2019-05-21T10:39:48.861Z,3668.00
2019-05-21T10:40:48.815Z,3624.00
2019-05-21T10:41:48.736Z,3592.00
2019-05-21T10:42:48.660Z,3552.00
2019-05-21T10:43:48.596Z,3496.00
2019-05-21T10:44:48.595Z,3492.00
2019-05-21T10:45:48.465Z,3452.00
2019-05-21T10:46:48.401Z,3440.00
2019-05-21T10:47:48.335Z,3452.00
2019-05-21T10:48:48.305Z,3444.00
2019-05-21T10:49:48.205Z,3456.00
2019-05-21T10:50:48.137Z,3416.00
2019-05-21T10:51:48.072Z,3424.00
2019-05-21T10:52:48.009Z,3436.00
2019-05-21T10:53:47.938Z,3452.00
2019-05-21T10:54:47.872Z,3412.00
2019-05-21T10:55:47.810Z,3436.00
2019-05-21T10:56:48.648Z,3424.00
2019-05-21T10:57:47.688Z,3444.00
2019-05-21T10:58:47.626Z,3452.00
2019-05-21T10:59:47.547Z,3464.00
2019-05-21T11:00:47.503Z,3492.00
2019-05-21T11:01:47.418Z,3500.00
2019-05-21T11:02:47.348Z,3480.00
2019-05-21T11:03:47.283Z,3468.00
2019-05-21T11:04:47.216Z,3456.00
2019-05-21T11:05:47.153Z,3468.00
2019-05-21T11:06:47.082Z,3488.00
2019-05-21T11:07:47.020Z,3496.00
2019-05-21T11:08:46.954Z,3496.00
2019-05-21T11:09:46.898Z,3476.00
2019-05-21T11:10:46.824Z,3476.00
2019-05-21T11:11:46.754Z,3476.00
2019-05-21T11:12:46.703Z,3460.00
2019-05-21T11:13:46.627Z,3444.00
2019-05-21T11:14:46.567Z,3436.00
2019-05-21T11:15:46.495Z,3420.00
2019-05-21T11:16:46.430Z,3400.00
2019-05-21T11:17:59.287Z,3368.00
2019-05-21T11:18:46.297Z,3324.00
2019-05-21T11:19:46.357Z,3276.00
2019-05-21T11:20:46.174Z,3232.00
2019-05-21T11:21:46.102Z,3208.00
2019-05-21T11:22:46.034Z,3176.00
2019-05-21T11:23:46.115Z,3128.00
2019-05-21T11:24:45.908Z,3076.00
2019-05-21T11:25:45.840Z,3032.00
2019-05-21T11:26:45.777Z,2996.00
2019-05-21T11:27:45.714Z,2948.00
2019-05-21T11:28:45.648Z,2896.00
2019-05-21T11:29:45.581Z,2852.00
2019-05-21T11:30:45.511Z,2764.00
2019-05-21T11:31:56.356Z,2712.00
2019-05-21T11:32:47.918Z,2652.00
2019-05-21T11:33:45.322Z,2668.00
2019-05-21T11:34:45.252Z,2660.00
2019-05-21T11:35:45.190Z,2664.00
2019-05-21T11:36:45.118Z,2672.00
2019-05-21T11:37:47.889Z,2668.00
2019-05-21T11:38:44.991Z,2664.00
2019-05-21T11:39:44.968Z,2576.00
2019-05-21T11:40:50.199Z,2380.00
2019-05-21T11:41:44.793Z,2468.00
2019-05-21T11:42:44.730Z,2504.00
2019-05-21T11:43:44.666Z,2460.00
2019-05-21T11:44:44.606Z,2484.00
2019-05-21T11:45:44.534Z,2492.00
2019-05-21T11:46:44.474Z,2456.00
2019-05-21T11:47:44.408Z,2428.00
2019-05-21T11:48:44.336Z,2388.00
2019-05-21T11:49:44.270Z,2356.00
2019-05-21T11:50:44.207Z,2328.00
2019-05-21T11:51:44.144Z,2272.00
2019-05-21T11:52:44.077Z,2380.00
2019-05-21T11:53:44.011Z,2456.00
2019-05-21T11:54:43.998Z,2452.00
2019-05-21T11:55:43.884Z,2400.00
2019-05-21T11:56:43.811Z,2368.00
2019-05-21T11:57:43.746Z,2336.00
2019-05-21T11:58:43.681Z,2344.00
2019-05-21T11:59:43.615Z,2364.00
2019-05-21T12:00:43.551Z,2348.00
2019-05-21T12:01:43.481Z,2312.00
2019-05-21T12:02:43.424Z,2288.00
2019-05-21T12:03:43.361Z,2288.00
2019-05-21T12:04:43.297Z,2268.00
2019-05-21T12:05:43.227Z,2272.00
2019-05-21T12:06:43.162Z,2268.00
2019-05-21T12:07:43.086Z,2252.00
2019-05-21T12:08:55.616Z,2260.00
2019-05-21T12:09:42.958Z,2260.00
2019-05-21T12:10:42.895Z,2248.00
2019-05-21T12:11:42.835Z,2228.00
2019-05-21T12:12:42.765Z,2216.00
2019-05-21T12:13:42.696Z,2180.00
2019-05-21T12:14:42.637Z,2180.00
2019-05-21T12:15:42.587Z,2184.00
2019-05-21T12:16:42.502Z,2180.00
2019-05-21T12:17:42.434Z,2172.00
2019-05-21T12:18:42.368Z,2164.00
2019-05-21T12:19:42.307Z,2152.00
2019-05-21T12:20:42.243Z,2148.00
2019-05-21T12:21:42.179Z,2132.00
2019-05-21T12:22:42.106Z,2116.00
2019-05-21T12:23:42.041Z,2112.00
2019-05-21T12:24:41.979Z,2096.00
2019-05-21T12:25:41.926Z,2088.00
2019-05-21T12:26:41.843Z,2068.00
2019-05-21T12:27:41.781Z,2048.00
2019-05-21T12:28:41.717Z,2036.00
2019-05-21T12:29:41.645Z,2028.00
2019-05-21T12:30:41.585Z,2016.00
2019-05-21T12:31:41.520Z,1992.00